createdAt,value
2018-04-14T00:00:17.148Z,97510.95
2018-04-14T00:00:48.739Z,97519.03
2018-04-14T00:01:20.350Z,97519.88
2018-04-14T00:01:51.932Z,97512.16
2018-04-14T00:02:23.519Z,97520.67
2018-04-14T00:02:55.124Z,97516.81
2018-04-14T00:03:26.738Z,97514.70
2018-04-14T00:03:58.325Z,97519.78
2018-04-14T00:04:29.915Z,97519.31
2018-04-14T00:05:01.562Z,97520.59
2018-04-14T00:05:33.181Z,97521.42
2018-04-14T00:06:04.775Z,97512.93
2018-04-14T00:06:36.365Z,97521.41
2018-04-14T00:07:07.955Z,97517.58
2018-04-14T00:07:39.543Z,97519.29
2018-04-14T00:08:11.130Z,97521.02
2018-04-14T00:08:42.759Z,97522.29
2018-04-14T00:09:14.365Z,97517.58
2018-04-14T00:09:45.983Z,97520.56
2018-04-14T00:10:17.597Z,97521.44
2018-04-14T00:10:49.190Z,97521.44
2018-04-14T00:11:20.822Z,97527.84
2018-04-14T00:11:52.401Z,97521.02
2018-04-14T00:12:23.990Z,97519.72
2018-04-14T00:12:55.569Z,97518.01
2018-04-14T00:13:27.223Z,97520.98
2018-04-14T00:13:58.835Z,97520.98
2018-04-14T00:14:30.424Z,97520.56
2018-04-14T00:15:02.043Z,97518.43
2018-04-14T00:15:33.637Z,97520.14
2018-04-14T00:16:05.251Z,97514.20
2018-04-14T00:16:36.858Z,97515.41
2018-04-14T00:17:08.473Z,97518.01
2018-04-14T00:17:40.113Z,97525.23
2018-04-14T00:18:11.723Z,97514.95
2018-04-14T00:18:43.301Z,97522.19
2018-04-14T00:19:14.910Z,97517.09
2018-04-14T00:19:46.503Z,97519.15
2018-04-14T00:20:18.081Z,97514.94
2018-04-14T00:20:49.677Z,97518.80
2018-04-14T00:21:21.268Z,97514.52
2018-04-14T00:21:52.849Z,97519.62
2018-04-14T00:22:24.499Z,97514.95
2018-04-14T00:22:56.089Z,97522.13
2018-04-14T00:23:27.675Z,97522.98
2018-04-14T00:23:59.259Z,97517.94
2018-04-14T00:24:30.860Z,97520.05
2018-04-14T00:25:02.480Z,97526.00
2018-04-14T00:25:34.096Z,97508.48
2018-04-14T00:26:05.696Z,97525.11
2018-04-14T00:26:37.350Z,97518.37
2018-04-14T00:27:08.960Z,97515.81
2018-04-14T00:27:40.562Z,97517.95
2018-04-14T00:28:12.190Z,97523.91
2018-04-14T00:28:43.789Z,97520.52
2018-04-14T00:29:15.391Z,97515.39
2018-04-14T00:29:46.996Z,97519.64
2018-04-14T00:30:18.582Z,97520.12
2018-04-14T00:30:50.166Z,97515.38
2018-04-14T00:31:21.755Z,97519.22
2018-04-14T00:31:53.341Z,97522.22
2018-04-14T00:32:24.941Z,97525.69
2018-04-14T00:32:56.555Z,97522.73
2018-04-14T00:33:28.186Z,97519.36
2018-04-14T00:33:59.781Z,97521.44
2018-04-14T00:34:31.390Z,97528.23
2018-04-14T00:35:02.986Z,97523.98
2018-04-14T00:35:34.571Z,97524.83
2018-04-14T00:36:06.159Z,97525.69
2018-04-14T00:36:37.747Z,97529.16
2018-04-14T00:37:09.353Z,97524.48
2018-04-14T00:37:40.955Z,97523.14
2018-04-14T00:38:12.542Z,97530.39
2018-04-14T00:38:44.146Z,97527.84
2018-04-14T00:39:15.747Z,97527.88
2018-04-14T00:39:47.374Z,97525.36
2018-04-14T00:40:18.987Z,97525.34
2018-04-14T00:40:50.593Z,97530.00
2018-04-14T00:41:22.206Z,97525.33
2018-04-14T00:41:53.793Z,97531.23
2018-04-14T00:42:25.402Z,97528.64
2018-04-14T00:42:57.019Z,97527.80
2018-04-14T00:43:28.645Z,97523.56
2018-04-14T00:44:00.225Z,97521.91
2018-04-14T00:44:31.871Z,97523.63
2018-04-14T00:45:03.478Z,97529.61
2018-04-14T00:45:35.096Z,97524.06
2018-04-14T00:46:06.686Z,97530.44
2018-04-14T00:46:38.297Z,97524.42
2018-04-14T00:47:09.915Z,97529.50
2018-04-14T00:47:41.502Z,97525.63
2018-04-14T00:48:13.078Z,97526.03
2018-04-14T00:48:44.698Z,97529.02
2018-04-14T00:49:16.292Z,97530.30
2018-04-14T00:49:47.923Z,97524.32
2018-04-14T00:50:19.533Z,97526.47
2018-04-14T00:50:51.139Z,97526.05
2018-04-14T00:51:22.743Z,97531.58
2018-04-14T00:51:54.327Z,97527.31
2018-04-14T00:52:25.925Z,97523.53
2018-04-14T00:52:57.539Z,97526.09
2018-04-14T00:53:29.264Z,97524.83
2018-04-14T00:54:00.880Z,97526.52
2018-04-14T00:54:32.531Z,97531.64
2018-04-14T00:55:04.173Z,97525.70
2018-04-14T00:55:35.779Z,97530.38
2018-04-14T00:56:07.415Z,97531.23
2018-04-14T00:56:39.040Z,97522.27
2018-04-14T00:57:10.821Z,97523.12
2018-04-14T00:57:42.420Z,97528.25
2018-04-14T00:58:14.029Z,97524.84
2018-04-14T00:58:45.639Z,97526.98
2018-04-14T00:59:17.230Z,97528.64
2018-04-14T00:59:48.815Z,97530.78
2018-04-14T01:00:20.446Z,97529.52
2018-04-14T01:00:52.044Z,97525.33
2018-04-14T01:01:23.622Z,97532.13
2018-04-14T01:01:55.216Z,97525.77
2018-04-14T01:02:26.821Z,97533.00
2018-04-14T01:02:58.434Z,97530.02
2018-04-14T01:03:30.046Z,97528.31
2018-04-14T01:04:01.659Z,97528.25
2018-04-14T01:04:33.281Z,97532.94
2018-04-14T01:05:04.891Z,97532.08
2018-04-14T01:05:36.656Z,97529.52
2018-04-14T01:06:08.243Z,97529.53
2018-04-14T01:06:39.855Z,97528.55
2018-04-14T01:07:11.461Z,97529.37
2018-04-14T01:07:43.075Z,97530.64
2018-04-14T01:08:14.667Z,97532.41
2018-04-14T01:08:46.265Z,97531.48
2018-04-14T01:09:17.870Z,97531.50
2018-04-14T01:09:49.478Z,97537.08
2018-04-14T01:10:21.086Z,97532.41
2018-04-14T01:10:52.678Z,97537.50
2018-04-14T01:11:24.253Z,97535.80
2018-04-14T01:11:55.874Z,97532.83
2018-04-14T01:12:27.467Z,97537.12
2018-04-14T01:12:59.098Z,97537.53
2018-04-14T01:13:30.683Z,97542.23
2018-04-14T01:14:02.276Z,97534.98
2018-04-14T01:14:33.882Z,97534.70
2018-04-14T01:15:05.475Z,97543.14
2018-04-14T01:15:37.053Z,97543.98
2018-04-14T01:16:08.639Z,97542.70
2018-04-14T01:16:40.251Z,97541.45
2018-04-14T01:17:11.873Z,97538.45
2018-04-14T01:17:43.455Z,97541.01
2018-04-14T01:18:15.118Z,97541.01
2018-04-14T01:18:46.711Z,97544.42
2018-04-14T01:19:18.338Z,97544.00
2018-04-14T01:19:49.947Z,97544.05
2018-04-14T01:20:21.563Z,97545.69
2018-04-14T01:20:53.159Z,97548.67
2018-04-14T01:21:24.750Z,97545.33
2018-04-14T01:21:56.374Z,97547.88
2018-04-14T01:22:27.992Z,97551.28
2018-04-14T01:22:59.582Z,97543.67
2018-04-14T01:23:31.220Z,97546.20
2018-04-14T01:24:02.801Z,97550.45
2018-04-14T01:24:34.411Z,97552.16
2018-04-14T01:25:06.019Z,97545.36
2018-04-14T01:25:37.616Z,97552.17
2018-04-14T01:26:09.235Z,97546.98
2018-04-14T01:26:40.895Z,97550.81
2018-04-14T01:27:12.473Z,97552.98
2018-04-14T01:27:44.053Z,97550.46
2018-04-14T01:28:15.632Z,97549.18
2018-04-14T01:28:47.287Z,97557.70
2018-04-14T01:29:18.898Z,97553.03
2018-04-14T01:29:50.488Z,97557.33
2018-04-14T01:30:22.061Z,97556.44
2018-04-14T01:30:53.674Z,97551.33
2018-04-14T01:31:25.271Z,97550.53
2018-04-14T01:31:56.878Z,97553.87
2018-04-14T01:32:28.515Z,97557.71
2018-04-14T01:33:00.082Z,97554.72
2018-04-14T01:33:31.705Z,97554.72
2018-04-14T01:34:03.339Z,97554.70
2018-04-14T01:34:34.948Z,97563.20
2018-04-14T01:35:06.602Z,97558.47
2018-04-14T01:35:38.189Z,97552.44
2018-04-14T01:36:09.798Z,97554.56
2018-04-14T01:36:41.387Z,97557.54
2018-04-14T01:37:12.999Z,97550.72
2018-04-14T01:37:44.597Z,97556.69
2018-04-14T01:38:16.190Z,97557.10
2018-04-14T01:38:47.802Z,97558.81
2018-04-14T01:39:19.434Z,97558.81
2018-04-14T01:39:51.033Z,97564.41
2018-04-14T01:40:22.654Z,97562.66
2018-04-14T01:40:54.266Z,97562.73
2018-04-14T01:41:25.882Z,97558.45
2018-04-14T01:41:57.474Z,97564.85
2018-04-14T01:42:29.084Z,97561.85
2018-04-14T01:43:00.693Z,97563.13
2018-04-14T01:43:32.331Z,97562.28
2018-04-14T01:44:03.922Z,97559.73
2018-04-14T01:44:35.525Z,97570.82
2018-04-14T01:45:07.139Z,97562.78
2018-04-14T01:45:38.731Z,97564.02
2018-04-14T01:46:10.305Z,97564.00
2018-04-14T01:46:41.899Z,97561.86
2018-04-14T01:47:13.501Z,97570.33
2018-04-14T01:47:45.108Z,97572.86
2018-04-14T01:48:16.723Z,97562.65
2018-04-14T01:48:48.338Z,97568.66
2018-04-14T01:49:19.926Z,97568.66
2018-04-14T01:49:51.539Z,97553.16
2018-04-14T01:50:23.141Z,97569.45
2018-04-14T01:50:54.775Z,97563.94
2018-04-14T01:51:26.363Z,97568.61
2018-04-14T01:51:57.975Z,97566.06
2018-04-14T01:52:29.566Z,97569.94
2018-04-14T01:53:01.151Z,97568.18
2018-04-14T01:53:32.753Z,97565.59
2018-04-14T01:54:04.342Z,97564.70
2018-04-14T01:54:35.928Z,97575.34
2018-04-14T01:55:07.506Z,97575.34
2018-04-14T01:55:39.142Z,97569.42
2018-04-14T01:56:10.727Z,97579.16
2018-04-14T01:56:42.315Z,97574.02
2018-04-14T01:57:13.889Z,97578.25
2018-04-14T01:57:45.464Z,97574.46
2018-04-14T01:58:17.049Z,97580.41
2018-04-14T01:58:48.658Z,97585.97
2018-04-14T01:59:20.256Z,97578.73
2018-04-14T01:59:51.847Z,97588.95
2018-04-14T02:00:23.463Z,97591.06
2018-04-14T02:00:55.086Z,97574.89
2018-04-14T02:01:26.663Z,97587.66
2018-04-14T02:01:58.288Z,97583.84
2018-04-14T02:02:29.898Z,97591.52
2018-04-14T02:03:01.510Z,97590.25
2018-04-14T02:03:33.142Z,97592.01
2018-04-14T02:04:04.731Z,97594.13
2018-04-14T02:04:36.321Z,97589.81
2018-04-14T02:05:07.931Z,97591.09
2018-04-14T02:05:39.546Z,97588.97
2018-04-14T02:06:11.148Z,97588.17
2018-04-14T02:06:42.798Z,97592.37
2018-04-14T02:07:14.415Z,97595.36
2018-04-14T02:07:46.014Z,97595.85
2018-04-14T02:08:17.623Z,97597.98
2018-04-14T02:08:49.234Z,97602.67
2018-04-14T02:09:20.822Z,97602.66
2018-04-14T02:09:52.435Z,97595.43
2018-04-14T02:10:24.041Z,97594.58
2018-04-14T02:10:55.634Z,97602.22
2018-04-14T02:11:27.257Z,97597.97
2018-04-14T02:11:58.871Z,97601.35
2018-04-14T02:12:30.467Z,97600.94
2018-04-14T02:13:02.076Z,97598.81
2018-04-14T02:13:33.686Z,97602.16
2018-04-14T02:14:05.265Z,97606.05
2018-04-14T02:14:36.837Z,97605.20
2018-04-14T02:15:08.429Z,97593.03
2018-04-14T02:15:39.997Z,97603.94
2018-04-14T02:16:11.684Z,97602.57
2018-04-14T02:16:43.285Z,97610.25
2018-04-14T02:17:14.871Z,97603.48
2018-04-14T02:17:46.483Z,97610.74
2018-04-14T02:18:18.070Z,97617.98
2018-04-14T02:18:49.658Z,97613.36
2018-04-14T02:19:21.425Z,97616.34
2018-04-14T02:19:53.077Z,97618.05
2018-04-14T02:20:24.671Z,97620.95
2018-04-14T02:20:56.282Z,97620.44
2018-04-14T02:21:27.873Z,97626.77
2018-04-14T02:21:59.488Z,97628.96
2018-04-14T02:22:31.102Z,97622.59
2018-04-14T02:23:02.708Z,97624.72
2018-04-14T02:23:34.322Z,97628.55
2018-04-14T02:24:05.935Z,97622.18
2018-04-14T02:24:37.522Z,97626.90
2018-04-14T02:25:09.156Z,97626.90
2018-04-14T02:25:40.750Z,97628.61
2018-04-14T02:26:12.348Z,97626.48
2018-04-14T02:26:43.928Z,97631.53
2018-04-14T02:27:15.539Z,97636.63
2018-04-14T02:27:47.207Z,97626.33
2018-04-14T02:28:18.812Z,97625.13
2018-04-14T02:28:50.423Z,97626.75
2018-04-14T02:29:22.014Z,97618.13
2018-04-14T02:29:53.623Z,97631.88
2018-04-14T02:30:25.238Z,97633.63
2018-04-14T02:30:56.831Z,97633.59
2018-04-14T02:31:28.425Z,97635.28
2018-04-14T02:32:00.022Z,97631.36
2018-04-14T02:32:31.625Z,97636.23
2018-04-14T02:33:03.303Z,97640.01
2018-04-14T02:33:34.897Z,97640.91
2018-04-14T02:34:06.511Z,97640.13
2018-04-14T02:34:38.123Z,97634.69
2018-04-14T02:35:09.716Z,97641.91
2018-04-14T02:35:41.326Z,97640.58
2018-04-14T02:36:12.937Z,97643.56
2018-04-14T02:36:44.527Z,97635.52
2018-04-14T02:37:16.110Z,97635.20
2018-04-14T02:37:47.726Z,97641.60
2018-04-14T02:38:19.363Z,97644.16
2018-04-14T02:38:50.982Z,97646.29
2018-04-14T02:39:22.604Z,97641.23
2018-04-14T02:39:54.263Z,97645.49
2018-04-14T02:40:25.846Z,97645.13
2018-04-14T02:40:57.426Z,97643.02
2018-04-14T02:41:29.069Z,97663.46
2018-04-14T02:42:00.728Z,97643.03
2018-04-14T02:42:32.319Z,97640.47
2018-04-14T02:43:03.935Z,97651.55
2018-04-14T02:43:35.527Z,97645.14
2018-04-14T02:44:07.110Z,97646.84
2018-04-14T02:44:38.724Z,97645.55
2018-04-14T02:45:10.330Z,97648.45
2018-04-14T02:45:41.921Z,97653.95
2018-04-14T02:46:13.497Z,97647.61
2018-04-14T02:46:45.110Z,97655.22
2018-04-14T02:47:16.753Z,97654.86
2018-04-14T02:47:48.444Z,97656.93
2018-04-14T02:48:20.046Z,97657.76
2018-04-14T02:48:51.630Z,97659.91
2018-04-14T02:49:23.240Z,97654.77
2018-04-14T02:49:54.855Z,97655.20
2018-04-14T02:50:26.477Z,97667.55
2018-04-14T02:50:58.092Z,97665.02
2018-04-14T02:51:29.709Z,97660.77
2018-04-14T02:52:01.312Z,97663.29
2018-04-14T02:52:32.929Z,97661.16
2018-04-14T02:53:04.583Z,97673.08
2018-04-14T02:53:36.194Z,97665.41
2018-04-14T02:54:07.805Z,97666.69
2018-04-14T02:54:39.394Z,97663.73
2018-04-14T02:55:10.989Z,97670.55
2018-04-14T02:55:42.650Z,97670.47
2018-04-14T02:56:14.268Z,97668.75
2018-04-14T02:56:45.863Z,97669.24
2018-04-14T02:57:17.448Z,97672.61
2018-04-14T02:57:49.045Z,97677.70
2018-04-14T02:58:20.703Z,97682.80
2018-04-14T02:58:52.297Z,97677.56
2018-04-14T02:59:23.887Z,97681.81
2018-04-14T02:59:55.522Z,97685.61
2018-04-14T03:00:27.111Z,97680.95
2018-04-14T03:00:58.723Z,97683.08
2018-04-14T03:01:30.319Z,97691.58
2018-04-14T03:02:01.926Z,97689.88
2018-04-14T03:02:33.525Z,97694.98
2018-04-14T03:03:05.115Z,97692.00
2018-04-14T03:03:36.727Z,97689.02
2018-04-14T03:04:08.346Z,97691.53
2018-04-14T03:04:39.925Z,97694.05
2018-04-14T03:05:11.574Z,97696.60
2018-04-14T03:05:43.167Z,97693.98
2018-04-14T03:06:14.755Z,97691.42
2018-04-14T03:06:46.329Z,97693.92
2018-04-14T03:07:17.915Z,97696.05
2018-04-14T03:07:49.522Z,97692.71
2018-04-14T03:08:21.102Z,97698.61
2018-04-14T03:08:52.721Z,97699.88
2018-04-14T03:09:24.314Z,97700.72
2018-04-14T03:09:55.919Z,97702.02
2018-04-14T03:10:27.560Z,97699.02
2018-04-14T03:10:59.174Z,97705.41
2018-04-14T03:11:30.787Z,97703.22
2018-04-14T03:12:02.449Z,97703.70
2018-04-14T03:12:34.067Z,97709.60
2018-04-14T03:13:05.667Z,97715.19
2018-04-14T03:13:37.252Z,97702.78
2018-04-14T03:14:08.845Z,97719.82
2018-04-14T03:14:40.455Z,97713.86
2018-04-14T03:15:12.047Z,97709.16
2018-04-14T03:15:43.639Z,97714.64
2018-04-14T03:16:15.213Z,97707.44
2018-04-14T03:16:46.834Z,97711.66
2018-04-14T03:17:18.466Z,97708.22
2018-04-14T03:17:50.070Z,97717.60
2018-04-14T03:18:21.673Z,97719.31
2018-04-14T03:18:53.272Z,97715.89
2018-04-14T03:19:24.889Z,97714.19
2018-04-14T03:19:56.477Z,97718.02
2018-04-14T03:20:28.091Z,97723.52
2018-04-14T03:20:59.677Z,97719.31
2018-04-14T03:21:31.289Z,97730.81
2018-04-14T03:22:02.910Z,97727.41
2018-04-14T03:22:34.582Z,97723.58
2018-04-14T03:23:06.195Z,97723.20
2018-04-14T03:23:37.801Z,97726.61
2018-04-14T03:24:09.388Z,97726.19
2018-04-14T03:24:40.975Z,97728.75
2018-04-14T03:25:12.592Z,97711.59
2018-04-14T03:25:44.183Z,97727.48
2018-04-14T03:26:15.770Z,97729.25
2018-04-14T03:26:47.387Z,97727.92
2018-04-14T03:27:18.965Z,97729.17
2018-04-14T03:27:50.595Z,97727.06
2018-04-14T03:28:22.242Z,97738.14
2018-04-14T03:28:53.890Z,97728.33
2018-04-14T03:29:25.497Z,97735.56
2018-04-14T03:29:57.099Z,97731.30
2018-04-14T03:30:28.686Z,97725.42
2018-04-14T03:31:00.274Z,97730.89
2018-04-14T03:31:31.862Z,97733.44
2018-04-14T03:32:03.444Z,97721.74
2018-04-14T03:32:35.044Z,97734.70
2018-04-14T03:33:06.625Z,97733.03
2018-04-14T03:33:38.255Z,97738.56
2018-04-14T03:34:09.862Z,97739.40
2018-04-14T03:34:41.441Z,97734.30
2018-04-14T03:35:13.046Z,97730.03
2018-04-14T03:35:44.659Z,97734.70
2018-04-14T03:36:16.259Z,97725.56
2018-04-14T03:36:47.866Z,97737.22
2018-04-14T03:37:19.503Z,97738.92
2018-04-14T03:37:51.092Z,97737.22
2018-04-14T03:38:22.703Z,97734.65
2018-04-14T03:38:54.319Z,97721.73
2018-04-14T03:39:25.982Z,97741.05
2018-04-14T03:39:57.601Z,97740.66
2018-04-14T03:40:29.195Z,97747.33
2018-04-14T03:41:00.779Z,97742.59
2018-04-14T03:41:32.368Z,97749.81
2018-04-14T03:42:03.982Z,97743.80
2018-04-14T03:42:35.599Z,97747.12
2018-04-14T03:43:07.189Z,97748.91
2018-04-14T03:43:38.778Z,97746.83
2018-04-14T03:44:10.353Z,97751.89
2018-04-14T03:44:41.972Z,97752.78
2018-04-14T03:45:13.594Z,97754.49
2018-04-14T03:45:45.202Z,97753.59
2018-04-14T03:46:16.823Z,97754.02
2018-04-14T03:46:48.424Z,97754.49
2018-04-14T03:47:20.005Z,97751.95
2018-04-14T03:47:51.614Z,97753.64
2018-04-14T03:48:23.212Z,97757.05
2018-04-14T03:48:54.874Z,97758.28
2018-04-14T03:49:26.500Z,97759.17
2018-04-14T03:49:58.107Z,97760.41
2018-04-14T03:50:29.715Z,97762.53
2018-04-14T03:51:01.337Z,97768.07
2018-04-14T03:51:32.949Z,97770.20
2018-04-14T03:52:04.538Z,97765.16
2018-04-14T03:52:36.112Z,97767.27
2018-04-14T03:53:07.713Z,97768.98
2018-04-14T03:53:39.312Z,97767.70
2018-04-14T03:54:10.927Z,97766.02
2018-04-14T03:54:42.539Z,97766.00
2018-04-14T03:55:14.154Z,97762.59
2018-04-14T03:55:45.787Z,97770.61
2018-04-14T03:56:17.384Z,97768.84
2018-04-14T03:56:49.002Z,97766.78
2018-04-14T03:57:20.616Z,97772.69
2018-04-14T03:57:52.207Z,97774.80
2018-04-14T03:58:23.814Z,97771.41
2018-04-14T03:58:55.445Z,97775.29
2018-04-14T03:59:27.046Z,97771.88
2018-04-14T03:59:58.643Z,97774.04
2018-04-14T04:00:30.280Z,97772.26
2018-04-14T04:01:01.857Z,97772.69
2018-04-14T04:01:33.497Z,97772.73
2018-04-14T04:02:05.115Z,97777.38
2018-04-14T04:02:36.783Z,97776.59
2018-04-14T04:03:08.395Z,97779.98
2018-04-14T04:03:40.011Z,97778.70
2018-04-14T04:04:11.604Z,97778.70
2018-04-14T04:04:43.205Z,97769.34
2018-04-14T04:05:14.796Z,97779.55
2018-04-14T04:05:46.397Z,97772.34
2018-04-14T04:06:18.010Z,97776.64
2018-04-14T04:06:49.602Z,97776.28
2018-04-14T04:07:21.208Z,97779.57
2018-04-14T04:07:52.805Z,97785.44
2018-04-14T04:08:24.395Z,97785.87
2018-04-14T04:08:55.982Z,97786.31
2018-04-14T04:09:27.595Z,97789.73
2018-04-14T04:09:59.210Z,97788.79
2018-04-14T04:10:30.800Z,97788.79
2018-04-14T04:11:02.414Z,97790.48
2018-04-14T04:11:33.998Z,97794.73
2018-04-14T04:12:05.587Z,97791.32
2018-04-14T04:12:37.168Z,97790.85
2018-04-14T04:13:08.835Z,97795.04
2018-04-14T04:13:40.430Z,97789.13
2018-04-14T04:14:12.021Z,97790.84
2018-04-14T04:14:43.638Z,97792.55
2018-04-14T04:15:15.222Z,97796.02
2018-04-14T04:15:46.816Z,97801.13
2018-04-14T04:16:18.403Z,97798.51
2018-04-14T04:16:50.029Z,97796.87
2018-04-14T04:17:21.613Z,97802.41
2018-04-14T04:17:53.222Z,97798.98
2018-04-14T04:18:24.863Z,97800.64
2018-04-14T04:18:56.453Z,97798.52
2018-04-14T04:19:28.082Z,97798.13
2018-04-14T04:19:59.682Z,97794.30
2018-04-14T04:20:31.285Z,97804.89
2018-04-14T04:21:02.899Z,97802.67
2018-04-14T04:21:34.515Z,97798.79
2018-04-14T04:22:06.106Z,97799.27
2018-04-14T04:22:37.749Z,97808.22
2018-04-14T04:23:09.363Z,97807.43
2018-04-14T04:23:40.995Z,97805.25
2018-04-14T04:24:12.573Z,97807.39
2018-04-14T04:24:44.167Z,97803.98
2018-04-14T04:25:15.795Z,97802.69
2018-04-14T04:25:47.406Z,97805.65
2018-04-14T04:26:19.063Z,97809.02
2018-04-14T04:26:50.682Z,97806.46
2018-04-14T04:27:22.275Z,97806.51
2018-04-14T04:27:53.853Z,97808.22
2018-04-14T04:28:25.444Z,97805.19
2018-04-14T04:28:57.049Z,97811.58
2018-04-14T04:29:28.692Z,97810.70
2018-04-14T04:30:00.285Z,97806.79
2018-04-14T04:30:31.891Z,97800.81
2018-04-14T04:31:03.491Z,97805.95
2018-04-14T04:31:35.073Z,97796.03
2018-04-14T04:32:06.687Z,97812.41
2018-04-14T04:32:38.343Z,97808.99
2018-04-14T04:33:09.963Z,97812.34
2018-04-14T04:33:41.575Z,97815.82
2018-04-14T04:34:13.153Z,97815.83
2018-04-14T04:34:44.743Z,97812.89
2018-04-14T04:35:16.340Z,97815.83
2018-04-14T04:35:47.921Z,97814.63
2018-04-14T04:36:19.519Z,97817.61
2018-04-14T04:36:51.199Z,97810.02
2018-04-14T04:37:22.800Z,97817.25
2018-04-14T04:37:54.376Z,97815.61
2018-04-14T04:38:26.025Z,97819.86
2018-04-14T04:38:57.601Z,97822.80
2018-04-14T04:39:29.227Z,97820.30
2018-04-14T04:40:00.811Z,97824.55
2018-04-14T04:40:32.395Z,97821.59
2018-04-14T04:41:03.973Z,97824.13
2018-04-14T04:41:35.559Z,97824.50
2018-04-14T04:42:07.215Z,97823.27
2018-04-14T04:42:38.827Z,97825.83
2018-04-14T04:43:10.433Z,97824.13
2018-04-14T04:43:42.050Z,97828.81
2018-04-14T04:44:13.621Z,97828.34
2018-04-14T04:44:45.234Z,97827.91
2018-04-14T04:45:16.850Z,97831.32
2018-04-14T04:45:48.507Z,97831.32
2018-04-14T04:46:20.085Z,97826.63
2018-04-14T04:46:51.680Z,97832.99
2018-04-14T04:47:23.274Z,97830.02
2018-04-14T04:47:54.858Z,97832.95
2018-04-14T04:48:26.467Z,97837.62
2018-04-14T04:48:58.110Z,97839.27
2018-04-14T04:49:29.699Z,97841.03
2018-04-14T04:50:01.282Z,97839.32
2018-04-14T04:50:32.899Z,97844.00
2018-04-14T04:51:04.538Z,97843.58
2018-04-14T04:51:36.141Z,97849.50
2018-04-14T04:52:07.745Z,97847.37
2018-04-14T04:52:39.339Z,97851.20
2018-04-14T04:53:10.951Z,97850.77
2018-04-14T04:53:42.550Z,97854.67
2018-04-14T04:54:14.166Z,97855.52
2018-04-14T04:54:45.904Z,97850.83
2018-04-14T04:55:17.513Z,97856.73
2018-04-14T04:55:49.132Z,97860.13
2018-04-14T04:56:20.795Z,97858.42
2018-04-14T04:56:52.416Z,97858.86
2018-04-14T04:57:24.030Z,97857.55
2018-04-14T04:57:55.635Z,97862.25
2018-04-14T04:58:27.226Z,97856.28
2018-04-14T04:58:58.810Z,97863.10
2018-04-14T04:59:30.430Z,97855.81
2018-04-14T05:00:02.047Z,97861.39
2018-04-14T05:00:33.659Z,97863.97
2018-04-14T05:01:05.279Z,97867.78
2018-04-14T05:01:36.925Z,97865.66
2018-04-14T05:02:08.591Z,97869.50
2018-04-14T05:02:40.198Z,97868.23
2018-04-14T05:03:11.797Z,97863.05
2018-04-14T05:03:43.410Z,97866.87
2018-04-14T05:04:15.013Z,97866.44
2018-04-14T05:04:46.601Z,97860.91
2018-04-14T05:05:18.210Z,97866.44
2018-04-14T05:05:49.837Z,97871.56
2018-04-14T05:06:21.417Z,97875.38
2018-04-14T05:06:53.012Z,97870.70
2018-04-14T05:07:24.618Z,97874.10
2018-04-14T05:07:56.266Z,97874.53
2018-04-14T05:08:27.856Z,97880.88
2018-04-14T05:08:59.449Z,97875.38
2018-04-14T05:09:31.029Z,97875.80
2018-04-14T05:10:02.612Z,97878.31
2018-04-14T05:10:34.211Z,97877.95
2018-04-14T05:11:05.826Z,97875.83
2018-04-14T05:11:37.416Z,97877.11
2018-04-14T05:12:08.998Z,97881.42
2018-04-14T05:12:40.590Z,97877.59
2018-04-14T05:13:12.224Z,97873.28
2018-04-14T05:13:43.810Z,97880.94
2018-04-14T05:14:15.380Z,97876.25
2018-04-14T05:14:46.986Z,97877.55
2018-04-14T05:15:18.567Z,97880.09
2018-04-14T05:15:50.227Z,97877.88
2018-04-14T05:16:21.828Z,97880.44
2018-04-14T05:16:53.451Z,97876.62
2018-04-14T05:17:25.025Z,97873.64
2018-04-14T05:17:56.654Z,97881.78
2018-04-14T05:18:28.252Z,97883.91
2018-04-14T05:18:59.867Z,97886.90
2018-04-14T05:19:31.478Z,97890.30
2018-04-14T05:20:03.067Z,97886.90
2018-04-14T05:20:34.665Z,97887.34
2018-04-14T05:21:06.286Z,97887.34
2018-04-14T05:21:37.918Z,97891.23
2018-04-14T05:22:09.531Z,97896.72
2018-04-14T05:22:41.123Z,97901.05
2018-04-14T05:23:12.707Z,97898.92
2018-04-14T05:23:44.315Z,97900.20
2018-04-14T05:24:15.939Z,97897.64
2018-04-14T05:24:47.517Z,97900.20
2018-04-14T05:25:19.160Z,97902.80
2018-04-14T05:25:50.775Z,97902.38
2018-04-14T05:26:22.367Z,97904.58
2018-04-14T05:26:53.955Z,97908.41
2018-04-14T05:27:25.559Z,97902.03
2018-04-14T05:27:57.155Z,97908.42
2018-04-14T05:28:28.739Z,97910.98
2018-04-14T05:29:00.346Z,97906.66
2018-04-14T05:29:31.939Z,97906.66
2018-04-14T05:30:03.523Z,97910.50
2018-04-14T05:30:35.160Z,97907.98
2018-04-14T05:31:06.738Z,97911.82
2018-04-14T05:31:38.327Z,97910.61
2018-04-14T05:32:09.910Z,97909.72
2018-04-14T05:32:41.494Z,97908.91
2018-04-14T05:33:13.079Z,97906.02
2018-04-14T05:33:44.657Z,97907.64
2018-04-14T05:34:16.243Z,97909.35
2018-04-14T05:34:47.831Z,97910.20
2018-04-14T05:35:19.440Z,97909.77
2018-04-14T05:35:51.091Z,97910.63
2018-04-14T05:36:22.679Z,97914.90
2018-04-14T05:36:54.254Z,97912.34
2018-04-14T05:37:25.879Z,97915.80
2018-04-14T05:37:57.461Z,97919.63
2018-04-14T05:38:29.070Z,97918.31
2018-04-14T05:39:00.671Z,97918.30
2018-04-14T05:39:32.347Z,97919.64
2018-04-14T05:40:03.958Z,97917.02
2018-04-14T05:40:35.541Z,97922.56
2018-04-14T05:41:07.126Z,97925.48
2018-04-14T05:41:38.735Z,97922.48
2018-04-14T05:42:10.347Z,97923.39
2018-04-14T05:42:41.952Z,97926.80
2018-04-14T05:43:13.564Z,97927.17
2018-04-14T05:43:45.164Z,97923.77
2018-04-14T05:44:16.818Z,97924.60
2018-04-14T05:44:48.430Z,97922.86
2018-04-14T05:45:20.046Z,97921.15
2018-04-14T05:45:51.706Z,97921.15
2018-04-14T05:46:23.302Z,97922.84
2018-04-14T05:46:54.907Z,97923.13
2018-04-14T05:47:26.506Z,97927.39
2018-04-14T05:47:58.153Z,97923.49
2018-04-14T05:48:29.767Z,97921.36
2018-04-14T05:49:01.384Z,97927.33
2018-04-14T05:49:32.999Z,97925.62
2018-04-14T05:50:04.595Z,97924.73
2018-04-14T05:50:36.169Z,97925.59
2018-04-14T05:51:07.747Z,97923.46
2018-04-14T05:51:39.350Z,97925.97
2018-04-14T05:52:10.935Z,97925.59
2018-04-14T05:52:42.525Z,97920.55
2018-04-14T05:53:14.165Z,97931.93
2018-04-14T05:53:45.778Z,97930.66
2018-04-14T05:54:17.395Z,97932.37
2018-04-14T05:54:48.994Z,97936.63
2018-04-14T05:55:20.609Z,97932.37
2018-04-14T05:55:52.227Z,97928.09
2018-04-14T05:56:23.863Z,97926.33
2018-04-14T05:56:55.451Z,97934.48
2018-04-14T05:57:27.025Z,97928.94
2018-04-14T05:57:58.635Z,97934.06
2018-04-14T05:58:30.221Z,97933.28
2018-04-14T05:59:01.808Z,97926.89
2018-04-14T05:59:33.385Z,97934.55
2018-04-14T06:00:04.975Z,97929.86
2018-04-14T06:00:36.561Z,97938.76
2018-04-14T06:01:08.150Z,97936.19
2018-04-14T06:01:39.778Z,97945.16
2018-04-14T06:02:11.367Z,97939.60
2018-04-14T06:02:42.979Z,97942.16
2018-04-14T06:03:14.590Z,97946.00
2018-04-14T06:03:46.179Z,97946.06
2018-04-14T06:04:17.782Z,97948.63
2018-04-14T06:04:49.415Z,97952.09
2018-04-14T06:05:20.989Z,97954.59
2018-04-14T06:05:52.573Z,97949.84
2018-04-14T06:06:24.145Z,97951.59
2018-04-14T06:06:55.743Z,97950.34
2018-04-14T06:07:28.427Z,97953.38
2018-04-14T06:08:00.039Z,97952.59
2018-04-14T06:08:31.630Z,97952.17
2018-04-14T06:09:03.262Z,97949.67
2018-04-14T06:09:34.842Z,97954.78
2018-04-14T06:10:06.483Z,97961.20
2018-04-14T06:10:38.091Z,97947.34
2018-04-14T06:11:09.674Z,97956.16